createdAt,value
2023-04-20T00:01:09.776Z,8.63
2023-04-20T00:02:43.285Z,8.23
2023-04-20T00:04:18.275Z,8.20
2023-04-20T00:05:50.796Z,8.40
2023-04-20T00:07:24.859Z,8.23
2023-04-20T00:08:58.275Z,8.30
2023-04-20T00:10:33.045Z,7.77
2023-04-20T00:12:06.726Z,7.87
2023-04-20T00:13:40.270Z,7.80
2023-04-20T00:15:12.712Z,8.13
2023-04-20T00:16:46.378Z,8.20
2023-04-20T00:18:20.029Z,7.43
2023-04-20T00:19:53.444Z,7.20
2023-04-20T00:21:27.224Z,8.80
2023-04-20T00:23:00.603Z,7.00
2023-04-20T00:24:33.006Z,7.30
2023-04-20T00:26:07.767Z,7.40
2023-04-20T00:27:41.230Z,7.30
2023-04-20T00:29:14.829Z,7.33
2023-04-20T00:30:47.355Z,7.67
2023-04-20T00:32:20.989Z,6.97
2023-04-20T00:33:55.445Z,8.10
2023-04-20T00:35:28.908Z,10.27
2023-04-20T00:37:01.300Z,12.17
2023-04-20T00:38:34.674Z,12.40
2023-04-20T00:40:09.084Z,11.37
2023-04-20T00:41:44.616Z,11.50
2023-04-20T00:43:18.047Z,11.60
2023-04-20T00:44:51.504Z,12.50
2023-04-20T00:46:25.024Z,11.40
2023-04-20T00:47:58.468Z,12.70
2023-04-20T00:49:32.405Z,11.50
2023-04-20T00:51:05.985Z,11.27
2023-04-20T00:52:39.623Z,12.60
2023-04-20T00:54:12.396Z,11.87
2023-04-20T00:55:46.164Z,11.30
2023-04-20T00:57:23.853Z,11.17
2023-04-20T00:58:57.678Z,11.77
2023-04-20T01:00:32.985Z,12.97
2023-04-20T01:02:06.522Z,12.17
2023-04-20T01:03:41.128Z,10.63
2023-04-20T01:05:13.703Z,11.60
2023-04-20T01:06:47.173Z,10.40
2023-04-20T01:08:20.829Z,10.43
2023-04-20T01:09:54.210Z,11.27
2023-04-20T01:11:26.750Z,10.80
2023-04-20T01:13:01.552Z,11.53
2023-04-20T01:14:34.965Z,11.50
2023-04-20T01:16:07.978Z,10.80
2023-04-20T01:17:41.431Z,11.47
2023-04-20T01:19:14.472Z,11.67
2023-04-20T01:20:48.201Z,11.90
2023-04-20T01:22:22.995Z,10.77
2023-04-20T01:23:56.453Z,11.30
2023-04-20T01:25:31.398Z,10.43
2023-04-20T01:27:03.810Z,11.47
2023-04-20T01:28:37.278Z,12.43
2023-04-20T01:30:11.276Z,11.20
2023-04-20T01:31:44.740Z,12.27
2023-04-20T01:33:18.155Z,12.07
2023-04-20T01:34:50.590Z,12.00
2023-04-20T01:36:23.999Z,13.00
2023-04-20T01:37:58.779Z,12.07
2023-04-20T01:39:32.216Z,11.77
2023-04-20T01:41:06.516Z,12.13
2023-04-20T01:42:39.956Z,11.87
2023-04-20T01:44:13.373Z,12.13
2023-04-20T01:45:46.037Z,12.10
2023-04-20T01:47:20.288Z,12.47
2023-04-20T01:48:53.719Z,11.60
2023-04-20T01:50:27.091Z,11.10
2023-04-20T01:52:00.478Z,14.00
2023-04-20T01:53:34.224Z,12.67
2023-04-20T01:55:08.863Z,11.27
2023-04-20T01:56:42.325Z,13.03
2023-04-20T01:58:15.769Z,12.23
2023-04-20T01:59:48.150Z,11.83
2023-04-20T02:01:22.122Z,11.80
2023-04-20T02:02:54.756Z,11.80
2023-04-20T02:04:29.344Z,12.10
2023-04-20T02:06:02.757Z,11.13
2023-04-20T02:07:35.684Z,11.87
2023-04-20T02:09:10.732Z,12.53
2023-04-20T02:10:44.133Z,11.83
2023-04-20T02:12:17.492Z,13.47
2023-04-20T02:13:50.937Z,16.67
2023-04-20T02:15:24.378Z,16.43
2023-04-20T02:16:57.861Z,15.23
2023-04-20T02:18:32.936Z,18.30
2023-04-20T02:20:07.385Z,17.90
2023-04-20T02:21:41.125Z,16.13
2023-04-20T02:23:14.675Z,17.17
2023-04-20T02:24:49.742Z,17.83
2023-04-20T02:26:23.708Z,18.13
2023-04-20T02:27:57.238Z,17.03
2023-04-20T02:29:30.639Z,17.03
2023-04-20T02:31:04.138Z,16.67
2023-04-20T02:32:37.683Z,18.53
2023-04-20T02:34:11.087Z,18.30
2023-04-20T02:35:44.584Z,16.20
2023-04-20T02:37:17.038Z,18.30
2023-04-20T02:38:50.912Z,17.10
2023-04-20T02:40:25.635Z,17.93
2023-04-20T02:41:59.242Z,18.33
2023-04-20T02:43:34.118Z,18.17
2023-04-20T02:45:08.745Z,17.83
2023-04-20T02:46:42.180Z,19.27
2023-04-20T02:48:15.692Z,17.07
2023-04-20T02:49:48.275Z,18.83
2023-04-20T02:51:22.335Z,19.37
2023-04-20T02:52:55.732Z,18.60
2023-04-20T02:54:29.222Z,18.30
2023-04-20T02:56:04.229Z,18.00
2023-04-20T02:57:46.338Z,19.63
2023-04-20T02:59:19.024Z,19.67
2023-04-20T03:01:01.734Z,19.07
2023-04-20T03:02:37.012Z,18.70
2023-04-20T03:04:10.715Z,19.90
2023-04-20T03:05:51.096Z,20.90
2023-04-20T03:07:24.531Z,20.90
2023-04-20T03:08:58.759Z,20.70
2023-04-20T03:10:58.683Z,20.47
2023-04-20T03:12:33.607Z,19.97
2023-04-20T03:14:42.408Z,20.47
2023-04-20T03:16:16.454Z,22.90
2023-04-20T03:17:53.541Z,21.43
2023-04-20T03:19:26.950Z,21.23
2023-04-20T03:21:00.334Z,21.30
2023-04-20T03:22:35.282Z,22.97
2023-04-20T03:24:09.196Z,21.20
2023-04-20T03:25:43.638Z,19.83
2023-04-20T03:27:27.122Z,20.10
2023-04-20T03:29:11.569Z,20.43
2023-04-20T03:30:45.932Z,20.37
2023-04-20T03:32:22.362Z,20.77
2023-04-20T03:33:55.806Z,22.07
2023-04-20T03:35:29.262Z,22.43
2023-04-20T03:37:02.673Z,20.93
2023-04-20T03:38:36.090Z,21.80
2023-04-20T03:40:10.488Z,22.37
2023-04-20T03:41:43.953Z,24.53
2023-04-20T03:43:17.349Z,23.13
2023-04-20T03:44:52.079Z,24.67
2023-04-20T03:46:25.567Z,20.77
2023-04-20T03:47:59.067Z,22.80
2023-04-20T03:49:33.448Z,24.00
2023-04-20T03:51:06.843Z,23.73
2023-04-20T03:52:41.089Z,23.30
2023-04-20T03:54:16.453Z,22.90
2023-04-20T03:55:49.901Z,22.57
2023-04-20T03:57:27.133Z,22.13
2023-04-20T03:59:00.888Z,22.40
2023-04-20T04:00:35.726Z,23.43
2023-04-20T04:02:15.779Z,22.07
2023-04-20T04:03:52.231Z,23.20
2023-04-20T04:05:26.431Z,23.20
2023-04-20T04:07:00.004Z,24.60
2023-04-20T04:08:33.380Z,24.40
2023-04-20T04:10:07.210Z,24.93
2023-04-20T04:11:40.767Z,22.40
2023-04-20T04:13:14.158Z,25.73
2023-04-20T04:14:47.593Z,22.17
2023-04-20T04:16:24.025Z,23.77
2023-04-20T04:17:56.699Z,24.73
2023-04-20T04:19:30.215Z,23.47
2023-04-20T04:21:02.681Z,23.97
2023-04-20T04:22:36.044Z,25.80
2023-04-20T04:24:38.276Z,24.30
2023-04-20T04:26:17.900Z,23.83
2023-04-20T04:27:51.308Z,24.47
2023-04-20T04:29:25.747Z,24.70
2023-04-20T04:31:01.586Z,24.03
2023-04-20T04:32:36.576Z,25.20
2023-04-20T04:34:10.777Z,26.30
2023-04-20T04:35:49.647Z,24.57
2023-04-20T04:37:23.319Z,24.07
2023-04-20T04:39:00.917Z,23.90
2023-04-20T04:40:34.631Z,23.80
2023-04-20T04:42:09.767Z,23.67
2023-04-20T04:43:48.149Z,26.63
2023-04-20T04:45:30.267Z,24.47
2023-04-20T04:47:05.472Z,23.73
2023-04-20T04:48:42.182Z,23.03
2023-04-20T04:50:17.109Z,24.30
2023-04-20T04:51:51.869Z,24.60
2023-04-20T04:53:24.289Z,24.17
2023-04-20T04:54:57.666Z,23.30
2023-04-20T04:56:31.012Z,24.73
2023-04-20T04:58:04.447Z,23.70
2023-04-20T04:59:37.920Z,24.90
2023-04-20T05:01:11.314Z,26.07
2023-04-20T05:02:44.752Z,24.37
2023-04-20T05:04:19.630Z,24.87
2023-04-20T05:05:53.024Z,26.33
2023-04-20T05:07:26.581Z,25.70
2023-04-20T05:08:59.935Z,25.87
2023-04-20T05:10:33.379Z,26.80
2023-04-20T05:12:06.895Z,26.13
2023-04-20T05:13:40.271Z,26.43
2023-04-20T05:15:13.682Z,26.57
2023-04-20T05:16:47.297Z,27.37
2023-04-20T05:18:20.728Z,27.07
2023-04-20T05:19:55.483Z,28.20
2023-04-20T05:21:28.931Z,26.60
2023-04-20T05:23:02.276Z,26.47
2023-04-20T05:24:35.705Z,25.40
2023-04-20T05:26:09.500Z,26.27
2023-04-20T05:27:42.879Z,27.20
2023-04-20T05:29:17.809Z,27.70
2023-04-20T05:30:51.516Z,28.50
2023-04-20T05:32:24.959Z,30.93
2023-04-20T05:33:58.364Z,27.93
2023-04-20T05:35:33.108Z,27.67
2023-04-20T05:37:06.630Z,28.77
2023-04-20T05:38:40.237Z,26.23
2023-04-20T05:40:12.814Z,27.23
2023-04-20T05:41:46.588Z,26.83
2023-04-20T05:43:20.012Z,24.67
2023-04-20T05:44:53.407Z,26.10
2023-04-20T05:46:26.938Z,27.43
2023-04-20T05:48:00.478Z,24.57
2023-04-20T05:49:33.922Z,25.17
2023-04-20T05:51:08.684Z,23.63
2023-04-20T05:52:42.061Z,24.13
2023-04-20T05:54:15.471Z,22.07
2023-04-20T05:55:48.879Z,23.60
2023-04-20T05:57:23.556Z,22.70
2023-04-20T05:58:57.108Z,20.77
2023-04-20T06:00:30.795Z,20.10
2023-04-20T06:02:04.180Z,21.17
2023-04-20T06:03:37.840Z,20.40
2023-04-20T06:05:12.009Z,21.97
2023-04-20T06:06:46.785Z,21.33
2023-04-20T06:08:20.192Z,21.17
2023-04-20T06:09:53.581Z,20.07
2023-04-20T06:11:26.980Z,22.30
2023-04-20T06:13:00.386Z,22.23
2023-04-20T06:14:33.780Z,22.93
2023-04-20T06:16:09.657Z,23.10
2023-04-20T06:17:43.247Z,22.17
2023-04-20T06:19:16.930Z,22.73
2023-04-20T06:20:50.412Z,21.97
2023-04-20T06:22:25.134Z,21.00
2023-04-20T06:23:58.505Z,21.50
2023-04-20T06:25:32.025Z,20.27
2023-04-20T06:27:05.502Z,19.93
2023-04-20T06:28:38.985Z,20.17
2023-04-20T06:30:13.059Z,19.03
2023-04-20T06:31:46.674Z,17.23
2023-04-20T06:33:20.134Z,19.00
2023-04-20T06:34:53.530Z,18.67
2023-04-20T06:36:27.711Z,18.60
2023-04-20T06:38:02.679Z,18.57
2023-04-20T06:39:36.719Z,19.73
2023-04-20T06:41:10.091Z,18.80
2023-04-20T06:42:43.477Z,18.87
2023-04-20T06:44:16.820Z,18.27
2023-04-20T06:45:50.217Z,19.63
2023-04-20T06:47:23.682Z,20.40
2023-04-20T06:48:57.229Z,18.70
2023-04-20T06:50:30.627Z,19.67
2023-04-20T06:52:04.159Z,17.80
2023-04-20T06:53:38.882Z,18.00
2023-04-20T06:55:13.307Z,18.73
2023-04-20T06:56:47.502Z,18.77
2023-04-20T06:58:20.916Z,18.07
2023-04-20T06:59:54.325Z,16.20
2023-04-20T07:01:27.716Z,18.07
2023-04-20T07:03:01.306Z,15.67
2023-04-20T07:04:34.811Z,15.30
2023-04-20T07:06:11.036Z,15.63
2023-04-20T07:07:44.909Z,16.20
2023-04-20T07:09:20.209Z,15.63
2023-04-20T07:10:53.664Z,16.43
2023-04-20T07:12:27.075Z,15.20
2023-04-20T07:14:00.428Z,14.97
2023-04-20T07:15:33.772Z,15.07
2023-04-20T07:17:07.172Z,14.33
2023-04-20T07:18:40.513Z,13.93
2023-04-20T07:20:13.930Z,15.63
2023-04-20T07:21:47.482Z,17.07
2023-04-20T07:23:21.370Z,15.53
2023-04-20T07:24:56.075Z,15.17
2023-04-20T07:26:29.563Z,14.40
2023-04-20T07:28:02.964Z,15.30
2023-04-20T07:29:36.310Z,16.10
2023-04-20T07:31:09.692Z,16.73
2023-04-20T07:32:43.254Z,13.90
2023-04-20T07:34:16.891Z,14.63
2023-04-20T07:35:50.498Z,14.83
2023-04-20T07:37:26.386Z,16.70
2023-04-20T07:39:00.604Z,14.20
2023-04-20T07:40:35.345Z,14.57
2023-04-20T07:42:08.725Z,13.27
2023-04-20T07:43:42.096Z,15.17
2023-04-20T07:45:15.567Z,14.00
2023-04-20T07:46:49.666Z,15.87
2023-04-20T07:48:23.093Z,14.73
2023-04-20T07:49:57.562Z,15.33
2023-04-20T07:51:32.317Z,15.20
2023-04-20T07:53:05.734Z,16.37
2023-04-20T07:54:39.134Z,16.33
2023-04-20T07:56:13.889Z,15.53
2023-04-20T07:57:47.222Z,15.57
2023-04-20T07:59:20.680Z,14.33
2023-04-20T08:00:54.014Z,14.93
2023-04-20T08:02:27.550Z,14.67
2023-04-20T08:04:01.176Z,15.00
2023-04-20T08:05:34.957Z,15.77
2023-04-20T08:07:08.706Z,15.03
2023-04-20T08:08:42.248Z,15.23
2023-04-20T08:10:15.654Z,16.47
2023-04-20T08:11:51.154Z,16.63
2023-04-20T08:13:24.513Z,14.57
2023-04-20T08:15:00.591Z,17.13
2023-04-20T08:16:33.985Z,15.90
2023-04-20T08:18:07.572Z,14.83
2023-04-20T08:19:42.443Z,16.03
2023-04-20T08:21:18.444Z,14.63
2023-04-20T08:22:52.862Z,15.33
2023-04-20T08:24:26.780Z,17.27
2023-04-20T08:26:00.243Z,15.40
2023-04-20T08:27:35.041Z,15.00
2023-04-20T08:29:08.419Z,14.97
2023-04-20T08:30:42.116Z,14.40
2023-04-20T08:32:15.627Z,14.73
2023-04-20T08:33:48.979Z,16.27
2023-04-20T08:35:23.020Z,14.77
2023-04-20T08:36:56.491Z,16.27
2023-04-20T08:38:34.057Z,17.17
2023-04-20T08:40:08.350Z,15.97
2023-04-20T08:41:42.077Z,15.83
2023-04-20T08:43:16.836Z,17.30
2023-04-20T08:44:50.242Z,15.33
2023-04-20T08:46:23.972Z,16.73
2023-04-20T08:47:58.199Z,16.43
2023-04-20T08:49:31.830Z,15.37
2023-04-20T08:51:05.344Z,17.63
2023-04-20T08:52:39.723Z,18.30
2023-04-20T08:54:13.742Z,15.63
2023-04-20T08:55:47.121Z,18.10
2023-04-20T08:57:20.707Z,19.90
2023-04-20T08:58:56.186Z,17.10
2023-04-20T09:00:29.693Z,18.57
2023-04-20T09:02:12.781Z,17.33
2023-04-20T09:03:46.569Z,17.10
2023-04-20T09:05:27.278Z,22.07
2023-04-20T09:07:02.634Z,16.90
2023-04-20T09:08:36.848Z,17.43
2023-04-20T09:10:10.565Z,18.87
2023-04-20T09:11:44.272Z,17.27
2023-04-20T09:13:23.873Z,19.37
2023-04-20T09:14:58.629Z,17.33
2023-04-20T09:16:32.487Z,17.23
2023-04-20T09:18:15.431Z,18.47
2023-04-20T09:19:55.652Z,17.80
2023-04-20T09:21:29.560Z,17.40
2023-04-20T09:23:12.501Z,17.90
2023-04-20T09:24:45.906Z,16.93
2023-04-20T09:26:19.838Z,19.27
2023-04-20T09:27:59.816Z,18.30
2023-04-20T09:29:33.201Z,18.80
2023-04-20T09:31:08.029Z,18.10
2023-04-20T09:32:41.428Z,17.50
2023-04-20T09:34:15.150Z,19.73
2023-04-20T09:35:48.692Z,20.10
2023-04-20T09:37:22.816Z,19.43
2023-04-20T09:39:05.726Z,18.70
2023-04-20T09:40:39.188Z,18.93
2023-04-20T09:42:13.408Z,20.67
2023-04-20T09:43:47.010Z,19.10
2023-04-20T09:45:20.428Z,21.83
2023-04-20T09:46:55.334Z,22.37
2023-04-20T09:48:30.872Z,21.27
2023-04-20T09:50:19.506Z,25.10
2023-04-20T09:51:58.537Z,23.50
2023-04-20T09:53:32.609Z,20.07
2023-04-20T09:55:07.529Z,21.33
2023-04-20T09:56:41.640Z,21.20
2023-04-20T09:58:15.344Z,22.33
2023-04-20T09:59:49.638Z,23.10
2023-04-20T10:01:24.710Z,21.90
2023-04-20T10:02:59.610Z,22.57
2023-04-20T10:04:33.265Z,22.07
2023-04-20T10:06:07.440Z,19.97
2023-04-20T10:07:40.848Z,23.07
2023-04-20T10:09:22.582Z,23.33
2023-04-20T10:10:55.978Z,24.00
2023-04-20T10:12:29.326Z,20.53
2023-04-20T10:14:04.393Z,21.97
2023-04-20T10:15:38.590Z,21.50
2023-04-20T10:17:12.551Z,22.20
2023-04-20T10:18:57.421Z,20.97
2023-04-20T10:20:30.970Z,24.87
2023-04-20T10:22:04.359Z,25.37
2023-04-20T10:23:37.962Z,22.63
2023-04-20T10:25:17.104Z,25.37
2023-04-20T10:26:50.449Z,21.77
2023-04-20T10:28:23.835Z,20.20
2023-04-20T10:29:57.264Z,22.17
2023-04-20T10:31:37.108Z,23.77
2023-04-20T10:33:11.451Z,21.70
2023-04-20T10:34:46.581Z,20.07
2023-04-20T10:36:30.108Z,22.33
2023-04-20T10:38:03.921Z,21.20
2023-04-20T10:39:38.599Z,22.20
2023-04-20T10:41:12.782Z,20.77
2023-04-20T10:42:46.385Z,22.33
2023-04-20T10:44:19.925Z,23.33
2023-04-20T10:45:53.462Z,22.33
2023-04-20T10:47:30.932Z,23.40
2023-04-20T10:49:04.325Z,23.43
2023-04-20T10:50:39.375Z,23.07
2023-04-20T10:52:13.030Z,21.33
2023-04-20T10:53:46.513Z,22.20
2023-04-20T10:55:20.661Z,24.73
2023-04-20T10:56:54.699Z,22.37
2023-04-20T10:58:28.118Z,21.30
2023-04-20T11:00:01.644Z,23.57
2023-04-20T11:01:35.343Z,24.13
2023-04-20T11:03:08.882Z,24.63
2023-04-20T11:04:42.500Z,21.70
2023-04-20T11:06:17.322Z,24.00
2023-04-20T11:07:54.199Z,25.03
2023-04-20T11:09:28.455Z,23.07
2023-04-20T11:11:01.991Z,25.13
2023-04-20T11:12:40.679Z,26.27
2023-04-20T11:14:14.522Z,26.50
2023-04-20T11:15:48.065Z,26.23
2023-04-20T11:17:21.554Z,25.67
2023-04-20T11:18:55.794Z,23.63
2023-04-20T11:20:29.129Z,24.77
2023-04-20T11:22:04.432Z,23.00
2023-04-20T11:23:39.440Z,24.60
2023-04-20T11:25:13.587Z,24.60
2023-04-20T11:26:49.763Z,24.07
2023-04-20T11:28:23.490Z,26.00
2023-04-20T11:30:00.874Z,22.77
2023-04-20T11:31:34.821Z,23.27
2023-04-20T11:33:08.596Z,24.10
2023-04-20T11:34:42.525Z,24.43
2023-04-20T11:36:20.796Z,24.37
2023-04-20T11:37:57.559Z,24.43
2023-04-20T11:39:30.976Z,20.90
2023-04-20T11:41:06.840Z,24.43
2023-04-20T11:42:40.206Z,21.27
2023-04-20T11:44:15.122Z,22.07
2023-04-20T11:45:48.476Z,22.13
2023-04-20T11:47:21.845Z,23.47
2023-04-20T11:48:57.441Z,22.40
2023-04-20T11:50:31.125Z,23.77
2023-04-20T11:52:04.643Z,24.23
2023-04-20T11:53:39.364Z,24.50
2023-04-20T11:55:12.778Z,25.17
2023-04-20T11:56:46.804Z,27.23
2023-04-20T11:58:20.197Z,24.97
2023-04-20T11:59:53.540Z,24.57
2023-04-20T12:01:26.884Z,26.70
2023-04-20T12:03:02.199Z,23.83
2023-04-20T12:04:36.054Z,26.83
2023-04-20T12:06:09.775Z,23.03
2023-04-20T12:07:43.332Z,22.47
2023-04-20T12:09:18.288Z,24.33
2023-04-20T12:10:51.893Z,24.03
2023-04-20T12:12:26.508Z,22.40
2023-04-20T12:14:00.342Z,24.30
2023-04-20T12:15:33.863Z,27.43
2023-04-20T12:17:07.301Z,24.40
2023-04-20T12:18:41.300Z,25.70
2023-04-20T12:20:15.094Z,26.17
2023-04-20T12:21:48.505Z,23.80
2023-04-20T12:23:21.911Z,24.73
2023-04-20T12:24:56.675Z,25.97
2023-04-20T12:26:37.990Z,27.67
2023-04-20T12:28:12.266Z,24.10
2023-04-20T12:29:45.636Z,24.60
2023-04-20T12:31:20.514Z,24.70
2023-04-20T12:32:54.653Z,24.23
2023-04-20T12:34:30.811Z,25.63
2023-04-20T12:36:05.349Z,24.33
2023-04-20T12:37:38.964Z,25.23
2023-04-20T12:39:12.551Z,26.70
2023-04-20T12:40:47.246Z,24.53
2023-04-20T12:42:20.879Z,27.23
2023-04-20T12:43:54.206Z,26.27
2023-04-20T12:45:27.587Z,26.73
2023-04-20T12:47:01.192Z,23.70
2023-04-20T12:48:34.564Z,26.50
2023-04-20T12:50:08.530Z,24.57
2023-04-20T12:51:41.878Z,25.03
2023-04-20T12:53:15.267Z,26.17
2023-04-20T12:54:48.689Z,29.57
2023-04-20T12:56:23.438Z,27.20
2023-04-20T12:57:56.834Z,26.00
2023-04-20T12:59:30.230Z,25.60
2023-04-20T13:01:03.722Z,27.33
2023-04-20T13:02:37.373Z,27.47
2023-04-20T13:04:11.168Z,27.17
2023-04-20T13:05:45.569Z,26.67
2023-04-20T13:07:18.937Z,30.13
2023-04-20T13:08:52.335Z,29.60
2023-04-20T13:10:25.759Z,27.00
2023-04-20T13:12:00.491Z,27.77
2023-04-20T13:13:33.866Z,28.13
2023-04-20T13:15:09.297Z,29.40
2023-04-20T13:16:42.870Z,32.73
2023-04-20T13:18:16.278Z,27.33
2023-04-20T13:19:50.272Z,26.50
2023-04-20T13:21:23.636Z,27.57
2023-04-20T13:22:58.494Z,26.27
2023-04-20T13:24:32.087Z,26.50
2023-04-20T13:26:05.489Z,26.27
2023-04-20T13:27:40.349Z,27.40
2023-04-20T13:29:13.944Z,26.07
2023-04-20T13:30:47.338Z,26.63
2023-04-20T13:32:20.706Z,25.93
2023-04-20T13:33:54.726Z,27.17
2023-04-20T13:35:28.298Z,29.73
2023-04-20T13:37:02.077Z,27.20
2023-04-20T13:38:36.001Z,25.43
2023-04-20T13:40:10.628Z,23.93
2023-04-20T13:41:44.092Z,25.10
2023-04-20T13:43:21.341Z,22.30
2023-04-20T13:44:54.965Z,23.07
2023-04-20T13:46:28.452Z,23.30
2023-04-20T13:48:02.079Z,23.97
2023-04-20T13:49:35.550Z,25.80
2023-04-20T13:51:08.926Z,23.60
2023-04-20T13:52:42.338Z,24.77
2023-04-20T13:54:15.906Z,23.50
2023-04-20T13:55:49.758Z,25.93
2023-04-20T13:57:23.121Z,23.50
2023-04-20T13:58:57.866Z,23.27
2023-04-20T14:00:32.537Z,23.67
2023-04-20T14:02:07.669Z,25.13
2023-04-20T14:03:41.310Z,21.90
2023-04-20T14:05:14.781Z,22.83
2023-04-20T14:06:48.194Z,22.20
2023-04-20T14:08:23.303Z,22.57
2023-04-20T14:09:59.793Z,24.93
2023-04-20T14:11:33.196Z,22.30
2023-04-20T14:13:06.862Z,21.27
2023-04-20T14:14:41.729Z,21.43
2023-04-20T14:16:15.403Z,21.77
2023-04-20T14:17:51.736Z,23.57
2023-04-20T14:19:25.792Z,21.97
2023-04-20T14:20:59.213Z,21.23
2023-04-20T14:22:36.130Z,21.70
2023-04-20T14:24:09.651Z,21.60
2023-04-20T14:25:42.996Z,21.30
2023-04-20T14:27:16.457Z,22.27
2023-04-20T14:28:51.650Z,20.90
2023-04-20T14:30:26.651Z,20.60
2023-04-20T14:32:00.178Z,20.37
2023-04-20T14:33:33.584Z,20.50
2023-04-20T14:35:09.192Z,24.93
2023-04-20T14:36:42.625Z,21.03
2023-04-20T14:38:16.342Z,19.40
2023-04-20T14:39:49.817Z,19.23
2023-04-20T14:41:23.558Z,21.53
2023-04-20T14:42:57.045Z,22.40
2023-04-20T14:44:30.408Z,20.73
2023-04-20T14:46:06.980Z,20.57
2023-04-20T14:47:40.952Z,21.43
2023-04-20T14:49:14.408Z,21.90
2023-04-20T14:50:47.766Z,21.97
2023-04-20T14:52:21.099Z,22.47
2023-04-20T14:53:54.547Z,21.87
2023-04-20T14:55:28.719Z,21.23
2023-04-20T14:57:02.647Z,20.43
2023-04-20T14:58:37.367Z,19.83
2023-04-20T15:00:12.006Z,21.77
2023-04-20T15:02:01.259Z,19.47
2023-04-20T15:03:35.719Z,21.13
2023-04-20T15:05:11.197Z,21.27
2023-04-20T15:06:45.554Z,20.50
2023-04-20T15:08:18.914Z,21.37
2023-04-20T15:09:52.381Z,21.53
2023-04-20T15:11:25.790Z,21.30
2023-04-20T15:12:59.152Z,22.07
2023-04-20T15:14:32.499Z,22.47
2023-04-20T15:16:06.177Z,22.10
2023-04-20T15:17:40.011Z,21.03
2023-04-20T15:19:13.455Z,20.90
2023-04-20T15:20:46.953Z,22.87
2023-04-20T15:22:20.745Z,20.67
2023-04-20T15:23:54.154Z,20.47
2023-04-20T15:25:27.615Z,22.90
2023-04-20T15:27:01.647Z,24.07
2023-04-20T15:28:35.076Z,22.43
2023-04-20T15:30:09.105Z,24.27
2023-04-20T15:31:45.369Z,23.30
2023-04-20T15:33:20.242Z,22.57
2023-04-20T15:34:53.743Z,21.50
2023-04-20T15:36:27.237Z,23.73
2023-04-20T15:38:00.634Z,24.77
2023-04-20T15:39:34.185Z,25.80
2023-04-20T15:41:07.590Z,23.83
2023-04-20T15:42:39.956Z,24.93
2023-04-20T15:44:14.311Z,24.67
2023-04-20T15:45:47.724Z,22.63
2023-04-20T15:47:21.131Z,23.83
2023-04-20T15:48:55.837Z,22.33
2023-04-20T15:50:29.214Z,25.30
2023-04-20T15:52:02.619Z,23.10
2023-04-20T15:53:36.121Z,24.33
2023-04-20T15:55:11.966Z,24.40
2023-04-20T15:56:45.365Z,24.50
2023-04-20T15:58:18.968Z,26.90
2023-04-20T15:59:52.332Z,24.90
2023-04-20T16:01:25.947Z,23.40
2023-04-20T16:03:01.466Z,23.27
2023-04-20T16:04:36.687Z,22.70
2023-04-20T16:06:10.206Z,24.93
2023-04-20T16:07:43.556Z,24.67
2023-04-20T16:09:17.432Z,24.73
2023-04-20T16:10:50.775Z,23.63
2023-04-20T16:12:24.137Z,24.70
2023-04-20T16:13:57.877Z,24.37
2023-04-20T16:15:32.422Z,25.57
2023-04-20T16:17:05.809Z,26.20
2023-04-20T16:18:39.188Z,29.03
2023-04-20T16:20:14.303Z,26.87
2023-04-20T16:21:47.710Z,27.97
2023-04-20T16:23:21.094Z,25.73
2023-04-20T16:24:54.469Z,25.30
2023-04-20T16:26:27.837Z,23.90
2023-04-20T16:28:01.264Z,24.43
2023-04-20T16:29:34.688Z,22.93
2023-04-20T16:31:08.040Z,24.57
2023-04-20T16:32:41.986Z,24.87
2023-04-20T16:34:15.567Z,23.43
2023-04-20T16:35:50.467Z,23.50
2023-04-20T16:37:24.526Z,23.10
2023-04-20T16:38:57.972Z,21.57
2023-04-20T16:40:31.503Z,22.33
2023-04-20T16:42:05.021Z,23.80
2023-04-20T16:43:38.362Z,22.63
2023-04-20T16:45:11.838Z,23.00
2023-04-20T16:46:45.270Z,22.90
2023-04-20T16:48:18.671Z,22.30
2023-04-20T16:49:52.418Z,22.30
2023-04-20T16:51:27.175Z,23.07
2023-04-20T16:53:00.731Z,21.67
2023-04-20T16:54:34.358Z,19.50
2023-04-20T16:56:10.273Z,18.53
2023-04-20T16:57:43.801Z,22.67
2023-04-20T16:59:17.182Z,21.03
2023-04-20T17:00:50.613Z,24.07
2023-04-20T17:02:25.348Z,21.10
2023-04-20T17:03:59.604Z,22.47
2023-04-20T17:05:33.198Z,22.40
2023-04-20T17:07:07.953Z,24.13
2023-04-20T17:08:41.300Z,25.87
2023-04-20T17:10:14.824Z,24.40
2023-04-20T17:11:48.303Z,26.33
2023-04-20T17:13:21.714Z,25.37
2023-04-20T17:14:55.110Z,21.30
2023-04-20T17:16:28.537Z,27.97
2023-04-20T17:18:02.227Z,31.97
2023-04-20T17:19:37.288Z,31.17
2023-04-20T17:21:10.622Z,24.90
2023-04-20T17:22:46.553Z,28.40
2023-04-20T17:24:20.154Z,27.67
2023-04-20T17:25:54.642Z,30.43
2023-04-20T17:27:28.160Z,24.50
2023-04-20T17:29:01.567Z,25.37
2023-04-20T17:30:34.928Z,23.20
2023-04-20T17:32:09.075Z,20.97
2023-04-20T17:33:43.365Z,28.30
2023-04-20T17:35:16.764Z,30.30
2023-04-20T17:36:50.346Z,24.80
2023-04-20T17:38:25.131Z,22.60
2023-04-20T17:39:58.549Z,22.40
2023-04-20T17:41:31.915Z,24.60
2023-04-20T17:43:05.300Z,25.90
2023-04-20T17:44:38.865Z,26.00
2023-04-20T17:46:12.382Z,28.43
2023-04-20T17:47:46.100Z,61.67
2023-04-20T17:49:19.502Z,82.07
2023-04-20T17:50:53.199Z,27.63
2023-04-20T17:52:26.762Z,42.27
2023-04-20T17:54:01.502Z,26.80
2023-04-20T17:55:35.092Z,143.33
2023-04-20T17:57:08.972Z,166.47
2023-04-20T17:58:42.438Z,67.93
2023-04-20T18:00:16.630Z,28.00
2023-04-20T18:01:50.243Z,26.27
2023-04-20T18:03:23.858Z,30.50
2023-04-20T18:04:59.679Z,27.53
2023-04-20T18:06:33.753Z,25.20
2023-04-20T18:08:07.496Z,28.50
2023-04-20T18:09:43.284Z,25.17
2023-04-20T18:11:16.653Z,23.67
2023-04-20T18:12:50.097Z,23.60
2023-04-20T18:14:23.465Z,32.50
2023-04-20T18:15:56.884Z,33.00
2023-04-20T18:17:30.416Z,37.17
2023-04-20T18:19:03.884Z,40.13
2023-04-20T18:20:37.290Z,35.67
2023-04-20T18:22:10.741Z,29.90
2023-04-20T18:23:44.092Z,32.50
2023-04-20T18:25:19.249Z,30.17
2023-04-20T18:26:52.693Z,32.73
2023-04-20T18:28:26.110Z,36.13
2023-04-20T18:30:00.569Z,34.97
2023-04-20T18:31:34.105Z,35.83
2023-04-20T18:33:07.548Z,35.40
2023-04-20T18:34:41.009Z,38.97
2023-04-20T18:36:14.417Z,34.40
2023-04-20T18:37:47.794Z,34.10
2023-04-20T18:39:21.177Z,34.47
2023-04-20T18:40:55.910Z,33.20
2023-04-20T18:42:29.320Z,35.93
2023-04-20T18:44:02.706Z,33.63
2023-04-20T18:45:36.172Z,34.27
2023-04-20T18:47:09.739Z,34.93
2023-04-20T18:48:43.273Z,34.93
2023-04-20T18:50:16.635Z,33.63
2023-04-20T18:51:49.978Z,35.30
2023-04-20T18:53:23.340Z,38.50
2023-04-20T18:54:56.727Z,43.73
2023-04-20T18:56:32.255Z,44.00
2023-04-20T18:58:05.664Z,41.90
2023-04-20T18:59:39.138Z,45.80
2023-04-20T19:01:12.574Z,41.43
2023-04-20T19:02:46.214Z,39.53
2023-04-20T19:04:19.889Z,45.50
2023-04-20T19:05:53.513Z,44.87
2023-04-20T19:07:26.879Z,42.13
2023-04-20T19:09:01.143Z,40.90
2023-04-20T19:10:34.550Z,35.47
2023-04-20T19:12:09.359Z,37.30
2023-04-20T19:13:44.589Z,41.93
2023-04-20T19:15:25.222Z,41.03
2023-04-20T19:16:58.798Z,41.07
2023-04-20T19:18:32.293Z,40.70
2023-04-20T19:20:06.111Z,45.17
2023-04-20T19:21:39.514Z,44.47
2023-04-20T19:23:12.873Z,45.93
2023-04-20T19:24:46.266Z,42.50
2023-04-20T19:26:19.763Z,43.97
2023-04-20T19:27:54.468Z,51.80
2023-04-20T19:29:27.884Z,52.47
2023-04-20T19:31:01.535Z,52.50
2023-04-20T19:32:34.973Z,52.07
2023-04-20T19:34:09.068Z,56.13
2023-04-20T19:35:43.469Z,56.97
2023-04-20T19:37:16.848Z,54.87
2023-04-20T19:38:50.185Z,58.63
2023-04-20T19:40:24.737Z,53.00
2023-04-20T19:41:58.644Z,52.17
2023-04-20T19:43:33.539Z,63.27
2023-04-20T19:45:07.368Z,62.83
2023-04-20T19:46:40.885Z,63.40
2023-04-20T19:48:14.345Z,57.03
2023-04-20T19:49:47.722Z,54.13
2023-04-20T19:51:22.274Z,54.33
2023-04-20T19:52:55.680Z,48.53
2023-04-20T19:54:28.984Z,46.73
2023-04-20T19:56:04.141Z,43.17
2023-04-20T19:57:39.028Z,44.23
2023-04-20T19:59:13.803Z,43.40
2023-04-20T20:00:47.253Z,44.57
2023-04-20T20:02:20.813Z,45.83
2023-04-20T20:03:54.479Z,51.60
2023-04-20T20:05:27.935Z,51.10
2023-04-20T20:07:01.354Z,50.67
2023-04-20T20:08:34.761Z,56.93
2023-04-20T20:10:08.438Z,54.50
2023-04-20T20:11:47.983Z,60.47
2023-04-20T20:13:21.388Z,49.13
2023-04-20T20:14:56.162Z,54.03
2023-04-20T20:16:30.193Z,48.30